Time;durP1;ratioP1;P1;durP2;ratioP2;P2;SDS_P1;SDS_P2;PMS_P1;PMS_P2;Temp;Humidity;BMP_temperature;BMP_pressure;BME280_temperature;BME280_humidity;BME280_pressure;Samples;Min_cycle;Max_cycle;Signal;HPM_P1;HPM_P2
2023/07/02 00:00:14;;;;;;;4.07;2.22;;;18.00;99.90;;;;;;5053048;28;20103;-40
2023/07/02 00:02:41;;;;;;;4.80;2.42;;;18.00;99.90;;;;;;5053959;28;20112;-41
2023/07/02 00:05:08;;;;;;;4.13;2.53;;;18.00;99.90;;;;;;5055004;28;20065;-39
2023/07/02 00:07:37;;;;;;;4.43;2.88;;;17.90;99.90;;;;;;5058192;28;20120;-42
2023/07/02 00:10:05;;;;;;;8.43;3.00;;;17.90;99.90;;;;;;5060383;28;20073;-41
2023/07/02 00:12:33;;;;;;;4.20;3.03;;;17.90;99.90;;;;;;5064019;28;20036;-41
2023/07/02 00:15:01;;;;;;;3.83;2.63;;;18.00;99.90;;;;;;5058683;28;20060;-41
2023/07/02 00:17:30;;;;;;;4.32;2.97;;;17.90;99.90;;;;;;5055709;28;20059;-42
2023/07/02 00:20:02;;;;;;;4.15;2.80;;;17.90;99.90;;;;;;5058085;28;20045;-41
2023/07/02 00:22:31;;;;;;;5.85;2.95;;;17.80;99.90;;;;;;5056691;28;20463;-40
2023/07/02 00:24:58;;;;;;;4.75;3.05;;;17.80;99.90;;;;;;5060428;28;20052;-42
2023/07/02 00:27:25;;;;;;;4.10;3.05;;;17.80;99.90;;;;;;5060267;28;20045;-41
2023/07/02 00:29:53;;;;;;;5.32;3.00;;;17.70;99.90;;;;;;5050376;28;20498;-41
2023/07/02 00:32:20;;;;;;;4.15;3.10;;;17.60;99.90;;;;;;5055847;28;20045;-45
2023/07/02 00:34:48;;;;;;;6.40;3.83;;;17.60;99.90;;;;;;5055094;28;20053;-41
2023/07/02 00:37:15;;;;;;;5.30;3.65;;;17.60;99.90;;;;;;5052812;28;20533;-41
2023/07/02 00:39:43;;;;;;;5.38;3.58;;;17.60;99.90;;;;;;5063008;28;20052;-41
2023/07/02 00:42:12;;;;;;;6.20;3.70;;;17.60;99.90;;;;;;5061229;28;20131;-39
2023/07/02 00:44:40;;;;;;;4.50;3.40;;;17.60;99.90;;;;;;5064457;28;20044;-43
2023/07/02 00:47:09;;;;;;;5.13;3.60;;;17.60;99.90;;;;;;5055545;28;20175;-46
2023/07/02 00:49:36;;;;;;;5.05;3.53;;;17.60;99.90;;;;;;5064566;28;20635;-42
2023/07/02 00:52:04;;;;;;;5.82;3.55;;;17.60;99.90;;;;;;5056550;28;20041;-39
2023/07/02 00:54:31;;;;;;;5.38;3.95;;;17.60;99.90;;;;;;5062283;22;20403;-49
2023/07/02 00:57:03;;;;;;;5.75;3.70;;;17.70;99.90;;;;;;5031614;28;20425;-44
2023/07/02 00:59:33;;;;;;;5.28;3.50;;;17.70;99.90;;;;;;5031504;28;20486;-46
2023/07/02 01:02:02;;;;;;;5.27;3.97;;;17.70;99.90;;;;;;5024399;28;20136;-44
2023/07/02 01:04:30;;;;;;;5.18;3.80;;;17.70;99.90;;;;;;5007393;28;20042;-44
2023/07/02 01:06:58;;;;;;;8.95;3.55;;;17.70;99.90;;;;;;5008867;28;20056;-47
2023/07/02 01:09:26;;;;;;;5.57;3.30;;;17.80;99.90;;;;;;5009778;28;20124;-46
2023/07/02 01:11:59;;;;;;;5.88;3.67;;;17.80;99.90;;;;;;5003489;28;20045;-48
2023/07/02 01:14:41;;;;;;;5.00;3.55;;;17.90;99.90;;;;;;5013087;28;20065;-45
2023/07/02 01:17:09;;;;;;;6.30;3.83;;;17.80;99.90;;;;;;4999634;28;20049;-44
2023/07/02 01:19:44;;;;;;;6.68;3.67;;;17.90;99.90;;;;;;5009458;28;20088;-44
2023/07/02 01:22:13;;;;;;;4.90;3.45;;;17.80;99.90;;;;;;4998076;28;20045;-42
2023/07/02 01:24:41;;;;;;;5.05;3.58;;;17.80;99.90;;;;;;5011124;28;20053;-44
2023/07/02 01:27:10;;;;;;;5.00;3.80;;;17.80;99.90;;;;;;5004193;28;20478;-43
2023/07/02 01:29:37;;;;;;;5.53;3.80;;;17.90;99.90;;;;;;4983399;28;20062;-44
2023/07/02 01:32:05;;;;;;;6.20;3.60;;;17.90;99.90;;;;;;5009818;28;20145;-46
2023/07/02 01:34:33;;;;;;;7.18;3.88;;;17.80;99.90;;;;;;5008793;28;20074;-45
2023/07/02 01:37:01;;;;;;;5.60;3.53;;;17.90;99.90;;;;;;5006654;28;20053;-43
2023/07/02 01:39:29;;;;;;;5.50;3.70;;;17.90;99.90;;;;;;5006974;28;20046;-44
2023/07/02 01:42:17;;;;;;;6.45;3.90;;;17.90;99.90;;;;;;4985959;28;20066;-44
2023/07/02 01:44:47;;;;;;;5.28;3.47;;;17.80;99.90;;;;;;4991285;28;20111;-43
2023/07/02 01:47:15;;;;;;;6.47;3.33;;;17.90;99.90;;;;;;5001773;28;20491;-42
2023/07/02 01:49:43;;;;;;;5.07;3.47;;;17.90;99.90;;;;;;5006706;28;20053;-44
2023/07/02 01:52:10;;;;;;;6.82;3.75;;;17.80;99.90;;;;;;4991047;28;20054;-44
2023/07/02 01:54:37;;;;;;;5.47;3.70;;;17.90;99.90;;;;;;5001574;28;20415;-45
2023/07/02 01:57:05;;;;;;;5.15;3.60;;;17.90;99.90;;;;;;5009547;28;21272;-45
2023/07/02 01:59:32;;;;;;;5.88;4.03;;;17.80;99.90;;;;;;5007765;28;20049;-43
2023/07/02 02:02:00;;;;;;;4.38;3.17;;;17.80;99.90;;;;;;5011049;28;20141;-45
2023/07/02 02:04:28;;;;;;;6.80;4.22;;;17.80;99.90;;;;;;5007628;28;20124;-44
2023/07/02 02:06:55;;;;;;;9.98;3.20;;;17.80;99.90;;;;;;5009048;28;20395;-46
2023/07/02 02:09:22;;;;;;;5.43;3.03;;;17.70;99.90;;;;;;5006559;28;20073;-44
2023/07/02 02:11:52;;;;;;;5.60;3.20;;;17.70;99.90;;;;;;5007758;28;20052;-46
2023/07/02 02:14:21;;;;;;;5.20;3.55;;;17.70;99.90;;;;;;4985286;28;20045;-44
2023/07/02 02:16:49;;;;;;;5.70;3.40;;;17.60;99.90;;;;;;4991348;28;20120;-47
2023/07/02 02:19:16;;;;;;;13.13;3.75;;;17.60;99.90;;;;;;5000780;28;20046;-45
2023/07/02 02:21:44;;;;;;;4.63;3.25;;;17.60;99.90;;;;;;5005637;28;20423;-44
2023/07/02 02:24:12;;;;;;;6.22;3.60;;;17.60;99.90;;;;;;5017057;28;20053;-47
2023/07/02 02:26:40;;;;;;;4.30;3.33;;;17.60;99.90;;;;;;5021162;28;20068;-44
2023/07/02 02:29:08;;;;;;;5.45;3.30;;;17.60;99.90;;;;;;5013796;28;20077;-45
2023/07/02 02:31:35;;;;;;;5.70;3.70;;;17.50;99.90;;;;;;4994570;28;20037;-45
2023/07/02 02:34:04;;;;;;;5.32;3.22;;;17.50;99.90;;;;;;5001239;28;20133;-45
2023/07/02 02:36:32;;;;;;;5.22;3.35;;;17.40;99.90;;;;;;5000527;28;20072;-48
2023/07/02 02:39:00;;;;;;;4.55;3.47;;;17.30;99.90;;;;;;5005115;28;20056;-44
2023/07/02 02:41:29;;;;;;;5.10;3.22;;;17.20;99.90;;;;;;4999432;28;20056;-47
2023/07/02 02:43:56;;;;;;;4.90;3.65;;;17.10;99.90;;;;;;5017862;28;20093;-45
2023/07/02 02:46:24;;;;;;;6.22;4.05;;;17.10;99.90;;;;;;5010222;28;20041;-44
2023/07/02 02:48:52;;;;;;;6.43;3.40;;;17.00;99.90;;;;;;4996110;28;20039;-46
2023/07/02 02:51:20;;;;;;;5.18;3.63;;;17.00;99.90;;;;;;4998949;28;20037;-44
2023/07/02 02:53:48;;;;;;;5.90;3.35;;;16.90;99.90;;;;;;5021367;28;20407;-44
2023/07/02 02:56:15;;;;;;;5.47;3.42;;;16.90;99.90;;;;;;5008423;28;20049;-48
2023/07/02 02:58:43;;;;;;;5.70;3.78;;;16.80;99.90;;;;;;5002425;28;20072;-45
2023/07/02 03:01:10;;;;;;;5.80;3.38;;;16.80;99.90;;;;;;4997363;28;20050;-46
2023/07/02 03:03:40;;;;;;;5.68;3.20;;;16.80;99.90;;;;;;4991991;28;20210;-45
2023/07/02 03:06:08;;;;;;;5.03;3.38;;;16.80;99.90;;;;;;4998690;28;20129;-46
2023/07/02 03:08:35;;;;;;;4.60;3.42;;;16.80;99.90;;;;;;5018572;28;20068;-44
2023/07/02 03:11:02;;;;;;;4.80;3.50;;;16.90;99.90;;;;;;4993522;28;20536;-44
2023/07/02 03:13:29;;;;;;;5.90;3.38;;;16.80;99.90;;;;;;5018265;28;20045;-46
2023/07/02 03:15:57;;;;;;;5.63;3.03;;;16.90;99.90;;;;;;4997118;28;20058;-44
2023/07/02 03:18:24;;;;;;;5.68;3.15;;;16.90;99.90;;;;;;5000621;28;20153;-46
2023/07/02 03:20:51;;;;;;;6.90;3.10;;;16.80;99.90;;;;;;5018790;28;20077;-43
2023/07/02 03:23:19;;;;;;;4.10;3.00;;;16.90;99.90;;;;;;5002525;28;20141;-45
2023/07/02 03:25:46;;;;;;;4.55;3.30;;;16.80;99.90;;;;;;5020234;28;20136;-49
2023/07/02 03:28:13;;;;;;;4.75;3.20;;;16.80;99.90;;;;;;5018074;28;20037;-47
2023/07/02 03:30:41;;;;;;;4.65;3.22;;;16.80;99.90;;;;;;5020496;28;20406;-47
2023/07/02 03:33:12;;;;;;;6.57;3.03;;;16.80;99.90;;;;;;5027445;28;20597;-44
2023/07/02 03:35:39;;;;;;;5.43;2.93;;;16.70;99.90;;;;;;5014221;28;20053;-47
2023/07/02 03:38:07;;;;;;;4.90;3.10;;;16.80;99.90;;;;;;5012300;28;20455;-48
2023/07/02 03:40:34;;;;;;;6.03;3.67;;;16.80;99.90;;;;;;5013721;28;20060;-45
2023/07/02 03:43:01;;;;;;;5.50;3.35;;;16.80;99.90;;;;;;5023232;28;20128;-44
2023/07/02 03:45:29;;;;;;;4.55;3.05;;;16.80;99.90;;;;;;5017536;28;20123;-44
2023/07/02 03:47:56;;;;;;;4.80;3.05;;;16.90;99.90;;;;;;5012784;28;20160;-46
2023/07/02 03:50:24;;;;;;;5.32;3.00;;;16.90;99.90;;;;;;5020102;28;20126;-45
2023/07/02 03:52:51;;;;;;;4.82;2.88;;;16.90;99.90;;;;;;5026810;28;20164;-43
2023/07/02 03:55:19;;;;;;;5.43;3.10;;;16.80;99.90;;;;;;5021732;28;20082;-51
2023/07/02 03:57:47;;;;;;;5.85;3.33;;;16.80;99.90;;;;;;5023314;28;20053;-45
2023/07/02 04:00:14;;;;;;;5.82;3.20;;;16.80;99.90;;;;;;5010001;28;20150;-46
2023/07/02 04:02:42;;;;;;;6.60;3.03;;;16.80;99.90;;;;;;5014281;28;20317;-44
2023/07/02 04:05:09;;;;;;;4.85;3.10;;;16.80;99.90;;;;;;5017872;28;20507;-48
2023/07/02 04:07:37;;;;;;;5.93;3.22;;;16.70;99.90;;;;;;5011472;28;20049;-44
2023/07/02 04:10:04;;;;;;;6.20;3.33;;;16.80;99.90;;;;;;5016864;28;20077;-47
2023/07/02 04:12:32;;;;;;;5.32;3.10;;;16.70;99.90;;;;;;5022167;28;20127;-44
2023/07/02 04:14:59;;;;;;;5.90;3.28;;;16.70;99.90;;;;;;5004861;28;20060;-45
2023/07/02 04:17:26;;;;;;;5.55;3.20;;;16.80;99.90;;;;;;5015061;28;20070;-46
2023/07/02 04:19:55;;;;;;;7.00;3.03;;;16.80;99.90;;;;;;5024525;28;20115;-51
2023/07/02 04:22:22;;;;;;;5.15;3.25;;;16.90;99.90;;;;;;5030146;28;20096;-47
2023/07/02 04:24:49;;;;;;;4.30;2.95;;;16.80;99.90;;;;;;5022263;28;20045;-45
2023/07/02 04:27:22;;;;;;;5.47;2.95;;;16.80;99.90;;;;;;5024172;28;20041;-43
2023/07/02 04:30:11;;;;;;;6.57;3.17;;;16.70;99.90;;;;;;5028028;28;20041;-45
2023/07/02 04:32:41;;;;;;;5.47;3.03;;;16.80;99.90;;;;;;4997099;28;20084;-43
2023/07/02 04:35:11;;;;;;;8.38;3.20;;;16.90;99.90;;;;;;5031185;28;20053;-43
2023/07/02 04:37:38;;;;;;;5.28;2.65;;;16.90;99.90;;;;;;5031535;28;20045;-43
2023/07/02 04:40:09;;;;;;;6.22;3.15;;;17.00;99.90;;;;;;5023501;28;20097;-45
2023/07/02 04:42:46;;;;;;;5.32;2.90;;;17.00;99.90;;;;;;5016733;28;20124;-46
2023/07/02 04:45:15;;;;;;;6.03;3.22;;;17.10;99.90;;;;;;5022547;28;20067;-46
2023/07/02 04:47:45;;;;;;;6.57;3.33;;;17.10;99.90;;;;;;5031684;28;20453;-46
2023/07/02 04:50:12;;;;;;;7.30;3.42;;;17.10;99.90;;;;;;5026895;28;20541;-44
2023/07/02 04:52:40;;;;;;;6.13;3.40;;;17.30;99.90;;;;;;5031861;28;20037;-46
2023/07/02 04:55:07;;;;;;;9.90;3.42;;;17.30;99.90;;;;;;5027001;28;20609;-47
2023/07/02 04:57:35;;;;;;;4.03;3.08;;;17.40;99.90;;;;;;5029702;28;20141;-51
2023/07/02 05:00:05;;;;;;;3.95;2.90;;;17.30;99.90;;;;;;5031199;28;20199;-43
2023/07/02 05:02:33;;;;;;;5.70;3.50;;;17.30;99.90;;;;;;5018288;28;20041;-43
2023/07/02 05:05:00;;;;;;;7.07;3.40;;;17.40;99.90;;;;;;5018553;28;20125;-44
2023/07/02 05:07:27;;;;;;;5.45;3.20;;;17.40;99.90;;;;;;5011778;28;20077;-44
2023/07/02 05:09:55;;;;;;;6.00;3.00;;;17.40;99.90;;;;;;5010995;28;20038;-44
2023/07/02 05:12:23;;;;;;;4.32;2.90;;;17.50;99.90;;;;;;5017344;28;20071;-43
2023/07/02 05:14:50;;;;;;;7.65;3.45;;;17.50;99.90;;;;;;5009349;28;20116;-43
2023/07/02 05:17:17;;;;;;;5.07;3.00;;;17.60;99.90;;;;;;5021000;28;20132;-47
2023/07/02 05:19:45;;;;;;;4.18;2.70;;;17.60;99.90;;;;;;5018205;28;20054;-46
2023/07/02 05:22:12;;;;;;;5.18;3.35;;;17.60;99.90;;;;;;5022819;28;20203;-47
2023/07/02 05:24:40;;;;;;;4.80;3.55;;;17.60;99.90;;;;;;5020822;28;20120;-49
2023/07/02 05:27:08;;;;;;;6.57;3.47;;;17.60;99.90;;;;;;5024287;28;20048;-47
2023/07/02 05:29:35;;;;;;;6.63;3.53;;;17.60;99.90;;;;;;5019740;28;20072;-45
2023/07/02 05:32:03;;;;;;;7.68;3.63;;;17.60;99.90;;;;;;5012702;28;20121;-44
2023/07/02 05:34:31;;;;;;;8.35;4.20;;;17.60;99.90;;;;;;5017435;28;20058;-46
2023/07/02 05:36:58;;;;;;;6.10;3.90;;;17.60;99.90;;;;;;5013654;28;20120;-49
2023/07/02 05:39:25;;;;;;;5.43;3.70;;;17.80;99.90;;;;;;5020409;28;20046;-49
2023/07/02 05:41:53;;;;;;;7.40;4.30;;;17.80;99.90;;;;;;5026206;28;20124;-51
2023/07/02 05:44:20;;;;;;;6.60;4.13;;;17.90;99.90;;;;;;5026383;28;20047;-43
2023/07/02 05:46:48;;;;;;;8.68;4.32;;;18.10;99.90;;;;;;5014629;28;20050;-47
2023/07/02 05:49:16;;;;;;;8.80;4.53;;;18.00;99.90;;;;;;5020261;28;20049;-46
2023/07/02 05:51:43;;;;;;;8.50;4.55;;;17.90;99.90;;;;;;5030717;28;20048;-47
2023/07/02 05:54:10;;;;;;;8.43;5.10;;;17.90;99.90;;;;;;5028023;28;20123;-45
2023/07/02 05:56:38;;;;;;;8.60;4.88;;;18.00;99.90;;;;;;5017393;28;20426;-46
2023/07/02 05:59:05;;;;;;;8.73;4.97;;;17.90;99.90;;;;;;5030043;28;20112;-45
2023/07/02 06:01:32;;;;;;;7.43;5.03;;;17.90;99.90;;;;;;5018831;28;20128;-45
2023/07/02 06:04:00;;;;;;;10.60;5.60;;;18.00;99.90;;;;;;5024241;28;20044;-47
2023/07/02 06:06:27;;;;;;;8.75;5.47;;;18.00;99.90;;;;;;5028042;28;20671;-47
2023/07/02 06:08:54;;;;;;;9.00;5.35;;;18.10;99.90;;;;;;5029214;28;20054;-43
2023/07/02 06:11:22;;;;;;;8.35;5.03;;;18.20;99.90;;;;;;5019497;28;20067;-47
2023/07/02 06:13:49;;;;;;;10.60;6.32;;;18.40;99.90;;;;;;5015866;28;20125;-46
2023/07/02 06:16:16;;;;;;;14.65;7.30;;;18.40;99.90;;;;;;5008155;28;20128;-46
2023/07/02 06:18:45;;;;;;;11.73;7.47;;;18.40;99.90;;;;;;5020773;28;20047;-47
2023/07/02 06:21:13;;;;;;;13.98;8.05;;;18.40;99.90;;;;;;5028314;28;20445;-42
2023/07/02 06:23:42;;;;;;;11.82;7.15;;;18.40;99.90;;;;;;5025541;28;20045;-46
2023/07/02 06:26:10;;;;;;;14.98;8.15;;;18.60;99.90;;;;;;5026206;28;20065;-44
2023/07/02 06:28:39;;;;;;;13.13;8.40;;;18.60;99.90;;;;;;5024754;28;20053;-45
2023/07/02 06:31:06;;;;;;;10.77;7.47;;;18.60;99.90;;;;;;5017066;28;20052;-48
2023/07/02 06:33:34;;;;;;;12.98;8.00;;;18.80;99.90;;;;;;5025934;28;20045;-44
2023/07/02 06:36:01;;;;;;;16.60;8.60;;;18.80;99.90;;;;;;5011562;28;20050;-45
2023/07/02 06:38:28;;;;;;;12.73;7.78;;;18.90;99.90;;;;;;5020595;28;20125;-47
2023/07/02 06:40:56;;;;;;;14.63;8.30;;;18.90;99.90;;;;;;5020726;28;20061;-47
2023/07/02 06:43:23;;;;;;;13.50;8.63;;;18.90;99.90;;;;;;5020707;28;20042;-44
2023/07/02 06:45:50;;;;;;;15.95;8.50;;;18.80;99.90;;;;;;5025762;28;20112;-49
2023/07/02 06:48:21;;;;;;;16.27;8.98;;;18.80;99.90;;;;;;5016452;28;20045;-44
2023/07/02 06:50:48;;;;;;;15.95;8.48;;;18.70;99.90;;;;;;5029055;28;20550;-50
2023/07/02 06:53:21;;;;;;;13.50;8.40;;;18.90;99.90;;;;;;5015049;28;20092;-44
2023/07/02 06:55:48;;;;;;;15.23;8.98;;;19.00;99.90;;;;;;4938517;28;20052;-44
2023/07/02 06:58:16;;;;;;;18.45;8.60;;;18.90;99.90;;;;;;4946352;28;20062;-45
2023/07/02 07:00:43;;;;;;;14.13;9.05;;;18.80;99.90;;;;;;4946438;29;20066;-47
2023/07/02 07:03:11;;;;;;;17.38;9.50;;;18.70;99.90;;;;;;4949928;29;20054;-46
2023/07/02 07:05:39;;;;;;;15.60;9.32;;;18.80;99.90;;;;;;4947961;29;20036;-50
2023/07/02 07:08:06;;;;;;;15.13;9.07;;;18.80;99.90;;;;;;4951422;29;20086;-44
2023/07/02 07:10:34;;;;;;;16.40;9.52;;;18.70;99.90;;;;;;4951727;28;20063;-42
2023/07/02 07:13:02;;;;;;;14.98;9.75;;;18.90;99.90;;;;;;4952231;28;20472;-43
2023/07/02 07:15:34;;;;;;;15.77;8.82;;;19.10;99.90;;;;;;4946955;28;20086;-48
2023/07/02 07:18:02;;;;;;;14.98;9.27;;;19.20;99.90;;;;;;4949496;28;20133;-42
2023/07/02 07:20:31;;;;;;;13.82;9.57;;;19.10;99.90;;;;;;4949940;29;20113;-45
2023/07/02 07:22:58;;;;;;;18.20;9.82;;;19.10;99.90;;;;;;4953912;28;20046;-43
2023/07/02 07:25:25;;;;;;;16.20;9.88;;;19.10;99.90;;;;;;4949183;29;20048;-46
2023/07/02 07:27:53;;;;;;;15.93;9.63;;;19.10;99.90;;;;;;4950078;29;20101;-45
2023/07/02 07:30:23;;;;;;;14.18;9.38;;;19.30;99.90;;;;;;4941294;29;20465;-44
2023/07/02 07:32:52;;;;;;;15.52;8.70;;;19.20;99.90;;;;;;4945513;28;20079;-44
2023/07/02 07:35:21;;;;;;;13.98;9.05;;;19.30;99.90;;;;;;4923415;29;20048;-44
2023/07/02 07:37:49;;;;;;;16.00;9.88;;;19.20;99.90;;;;;;4937148;29;20059;-42
2023/07/02 07:40:17;;;;;;;16.83;9.50;;;19.30;99.90;;;;;;4919854;29;20050;-44
2023/07/02 07:42:44;;;;;;;15.55;9.13;;;19.20;99.90;;;;;;4940728;29;20044;-49
2023/07/02 07:45:11;;;;;;;11.77;8.90;;;19.10;99.90;;;;;;4939920;29;20063;-44
2023/07/02 07:47:39;;;;;;;13.88;8.95;;;19.30;99.90;;;;;;4935529;29;20043;-46
2023/07/02 07:50:10;;;;;;;15.85;9.07;;;19.40;99.90;;;;;;4939882;29;20048;-44
2023/07/02 07:52:39;;;;;;;17.83;9.87;;;19.30;99.90;;;;;;4938595;29;20048;-47
2023/07/02 07:55:07;;;;;;;14.85;9.07;;;19.20;99.90;;;;;;4940241;29;20079;-44
2023/07/02 07:57:36;;;;;;;15.07;9.23;;;19.20;99.90;;;;;;4932009;29;20099;-42
2023/07/02 08:00:06;;;;;;;15.75;8.98;;;19.30;99.90;;;;;;4932695;29;20162;-45
2023/07/02 08:02:49;;;;;;;15.52;8.98;;;19.50;99.90;;;;;;4924999;29;20046;-44
2023/07/02 08:05:17;;;;;;;12.63;8.18;;;20.00;99.90;;;;;;4924020;29;20044;-45
2023/07/02 08:07:44;;;;;;;11.90;7.20;;;19.80;99.90;;;;;;4935262;29;20121;-43
2023/07/02 08:10:11;;;;;;;11.77;7.05;;;19.80;99.90;;;;;;4932464;29;20063;-51
2023/07/02 08:12:39;;;;;;;11.55;7.45;;;19.80;99.90;;;;;;4927296;29;20620;-42
2023/07/02 08:15:07;;;;;;;12.55;7.32;;;19.80;99.90;;;;;;4931003;29;20075;-46
2023/07/02 08:17:34;;;;;;;9.88;7.22;;;20.00;99.90;;;;;;4929299;29;20047;-44
2023/07/02 08:20:04;;;;;;;10.98;7.47;;;20.30;99.90;;;;;;4922436;29;20119;-48
2023/07/02 08:22:31;;;;;;;13.35;7.00;;;20.50;99.90;;;;;;4930733;29;20071;-46
2023/07/02 08:24:58;;;;;;;10.30;6.88;;;20.40;99.90;;;;;;4934085;29;20099;-42
2023/07/02 08:27:26;;;;;;;10.35;6.68;;;20.10;99.90;;;;;;4933887;29;20100;-47
2023/07/02 08:29:56;;;;;;;16.38;6.80;;;19.90;99.90;;;;;;4936864;29;20108;-46
2023/07/02 08:32:24;;;;;;;10.23;6.68;;;19.80;99.90;;;;;;4938072;29;20036;-45
2023/07/02 08:34:51;;;;;;;12.65;6.80;;;19.90;99.90;;;;;;4931992;29;20058;-42
2023/07/02 08:37:21;;;;;;;10.45;6.32;;;20.10;99.90;;;;;;4930471;29;20051;-48
2023/07/02 08:39:49;;;;;;;8.00;5.80;;;20.00;99.90;;;;;;4936598;29;20051;-51
2023/07/02 08:42:17;;;;;;;9.70;6.30;;;20.00;99.90;;;;;;4934981;29;20055;-44
2023/07/02 08:44:48;;;;;;;8.15;6.13;;;19.90;99.90;;;;;;4937185;29;20035;-46
2023/07/02 08:47:15;;;;;;;10.85;6.03;;;19.70;99.90;;;;;;4933912;29;20575;-45
2023/07/02 08:49:43;;;;;;;11.13;6.22;;;19.90;99.90;;;;;;4936106;29;20067;-48
2023/07/02 08:52:10;;;;;;;7.85;5.80;;;20.30;99.90;;;;;;4928408;29;20176;-45
2023/07/02 08:54:38;;;;;;;8.75;5.97;;;20.60;99.90;;;;;;4929923;29;20051;-44
2023/07/02 08:57:06;;;;;;;10.00;5.80;;;20.60;99.90;;;;;;4927549;29;20103;-44
2023/07/02 08:59:33;;;;;;;8.52;5.88;;;20.60;99.90;;;;;;4934584;29;20154;-49
2023/07/02 09:02:00;;;;;;;10.25;6.10;;;20.50;99.90;;;;;;4937487;29;20044;-42
2023/07/02 09:04:28;;;;;;;8.85;6.00;;;20.50;99.90;;;;;;4935359;29;20084;-45
2023/07/02 09:07:10;;;;;;;7.97;5.90;;;20.60;99.90;;;;;;4935581;29;20473;-42
2023/07/02 09:09:48;;;;;;;9.98;5.90;;;20.60;99.90;;;;;;4934701;29;20043;-46
2023/07/02 09:12:25;;;;;;;9.05;5.78;;;20.70;99.90;;;;;;4935278;29;20126;-47
2023/07/02 09:14:57;;;;;;;8.70;5.53;;;20.70;99.90;;;;;;4937344;29;20048;-44
2023/07/02 09:17:34;;;;;;;11.40;5.78;;;20.90;99.90;;;;;;4919623;29;20540;-45
2023/07/02 09:20:06;;;;;;;8.35;5.97;;;21.00;99.90;;;;;;4933990;29;20077;-51
2023/07/02 09:22:34;;;;;;;10.25;6.20;;;21.20;99.90;;;;;;4935085;29;20051;-45
2023/07/02 09:25:03;;;;;;;9.10;6.40;;;21.20;99.90;;;;;;4935553;29;20084;-46
2023/07/02 09:27:35;;;;;;;9.52;6.35;;;21.10;99.90;;;;;;4933203;29;20548;-49
2023/07/02 09:30:15;;;;;;;7.68;5.43;;;20.80;99.90;;;;;;4934656;29;20064;-42
2023/07/02 09:32:44;;;;;;;6.38;5.18;;;21.10;99.90;;;;;;4931746;29;20042;-42
2023/07/02 09:35:12;;;;;;;10.63;6.18;;;21.50;99.90;;;;;;4930941;29;20146;-52
2023/07/02 09:37:43;;;;;;;8.18;6.18;;;21.70;99.90;;;;;;4933642;29;20063;-46
2023/07/02 09:40:11;;;;;;;11.35;6.15;;;21.70;99.90;;;;;;4935026;29;20509;-45
2023/07/02 09:42:40;;;;;;;9.35;7.00;;;21.50;99.90;;;;;;4934143;29;20043;-48
2023/07/02 09:45:10;;;;;;;9.57;6.75;;;21.50;99.90;;;;;;4934444;29;20086;-41
2023/07/02 09:47:45;;;;;;;9.20;5.72;;;21.90;99.90;;;;;;4934452;29;20086;-48
2023/07/02 09:50:14;;;;;;;9.80;5.90;;;22.00;99.90;;;;;;4938437;29;20172;-47
2023/07/02 09:52:44;;;;;;;7.05;5.70;;;21.90;99.90;;;;;;4935094;29;20154;-46
2023/07/02 09:55:12;;;;;;;8.23;6.03;;;22.00;99.90;;;;;;4933565;29;20168;-43
2023/07/02 09:57:40;;;;;;;10.35;6.68;;;22.40;99.90;;;;;;4934779;29;20074;-49
2023/07/02 10:00:08;;;;;;;13.68;6.05;;;22.60;99.90;;;;;;4935802;29;20410;-48
2023/07/02 10:02:38;;;;;;;9.10;6.18;;;22.30;99.90;;;;;;4937317;29;20111;-52
2023/07/02 10:05:06;;;;;;;7.45;5.78;;;22.00;99.90;;;;;;4942396;29;20127;-46
2023/07/02 10:07:33;;;;;;;10.13;6.07;;;22.10;99.90;;;;;;4946029;29;20040;-50
2023/07/02 10:10:01;;;;;;;10.27;6.38;;;22.60;99.90;;;;;;4943368;29;20332;-43
2023/07/02 10:12:30;;;;;;;9.18;6.30;;;22.60;99.90;;;;;;4939931;29;20094;-45
2023/07/02 10:14:58;;;;;;;8.23;6.22;;;22.60;99.90;;;;;;4935803;29;20049;-48
2023/07/02 10:17:34;;;;;;;12.98;7.10;;;22.50;99.90;;;;;;4941439;29;20048;-45
2023/07/02 10:20:13;;;;;;;9.55;6.57;;;22.40;99.90;;;;;;4936748;29;20111;-47
2023/07/02 10:22:52;;;;;;;8.50;6.20;;;22.50;99.90;;;;;;4940046;28;20126;-50
2023/07/02 10:25:31;;;;;;;10.40;6.72;;;22.50;99.90;;;;;;4949644;28;20031;-54
2023/07/02 10:27:59;;;;;;;8.88;6.35;;;22.70;99.90;;;;;;4936324;29;20044;-43
2023/07/02 10:30:38;;;;;;;10.32;7.07;;;22.40;99.90;;;;;;4934435;29;20055;-51
2023/07/02 10:33:23;;;;;;;10.35;7.05;;;22.30;99.90;;;;;;4936948;29;20051;-50
2023/07/02 10:36:01;;;;;;;11.30;6.60;;;22.30;99.90;;;;;;4931417;29;20048;-46
2023/07/02 10:38:28;;;;;;;9.80;7.35;;;22.10;99.90;;;;;;4927863;29;20135;-46
2023/07/02 10:41:02;;;;;;;15.90;7.18;;;22.20;99.90;;;;;;4927723;29;20083;-38
2023/07/02 10:43:32;;;;;;;10.77;7.47;;;22.20;99.90;;;;;;4930125;29;20477;-46
2023/07/02 10:46:02;;;;;;;9.10;7.10;;;22.60;99.90;;;;;;4934687;29;20051;-46
2023/07/02 10:48:31;;;;;;;10.50;6.90;;;22.70;99.90;;;;;;4932448;29;20524;-42
2023/07/02 10:50:58;;;;;;;14.00;7.30;;;22.60;99.90;;;;;;4933340;29;20509;-43
2023/07/02 10:53:26;;;;;;;8.77;6.85;;;22.50;99.90;;;;;;4933911;29;20078;-42
2023/07/02 10:56:15;;;;;;;10.48;6.93;;;22.60;99.90;;;;;;4931198;29;20047;-41
2023/07/02 10:58:46;;;;;;;11.73;6.57;;;22.80;99.90;;;;;;4919606;29;20055;-46
2023/07/02 11:01:21;;;;;;;8.60;6.57;;;23.00;99.90;;;;;;4927120;29;20058;-44
2023/07/02 11:03:58;;;;;;;7.75;6.80;;;23.10;99.90;;;;;;4933798;29;20507;-47
2023/07/02 11:06:32;;;;;;;10.00;6.95;;;23.00;99.90;;;;;;4933815;29;20046;-43
2023/07/02 11:09:00;;;;;;;8.40;6.40;;;23.30;99.90;;;;;;4932305;29;20457;-42
2023/07/02 11:11:27;;;;;;;10.52;6.78;;;23.30;99.90;;;;;;4931326;29;20116;-45
2023/07/02 11:13:55;;;;;;;10.18;7.63;;;23.20;99.90;;;;;;4930643;29;20150;-44
2023/07/02 11:16:26;;;;;;;9.02;6.47;;;23.50;99.90;;;;;;4933122;29;20071;-43
2023/07/02 11:19:09;;;;;;;10.18;6.97;;;23.50;99.90;;;;;;4933456;29;20052;-42
2023/07/02 11:21:37;;;;;;;10.25;6.78;;;23.40;99.90;;;;;;4933485;29;20044;-45
2023/07/02 11:24:08;;;;;;;9.20;6.80;;;23.90;99.90;;;;;;4935593;29;20055;-48
2023/07/02 11:26:39;;;;;;;12.70;7.40;;;23.60;99.90;;;;;;4934112;29;20043;-44
2023/07/02 11:29:18;;;;;;;8.52;7.10;;;23.80;99.90;;;;;;4940983;29;20079;-45
2023/07/02 11:31:45;;;;;;;11.27;7.28;;;23.80;99.90;;;;;;4940520;29;20044;-44
2023/07/02 11:34:18;;;;;;;15.55;7.20;;;23.90;99.90;;;;;;4935501;29;20048;-48
2023/07/02 11:36:48;;;;;;;10.30;8.20;;;23.70;99.00;;;;;;4934824;29;20465;-43
2023/07/02 11:39:15;;;;;;;11.43;8.00;;;23.50;99.10;;;;;;4935817;29;20044;-43
2023/07/02 11:41:44;;;;;;;10.20;7.55;;;23.80;99.00;;;;;;4932476;29;20146;-45
2023/07/02 11:44:11;;;;;;;11.20;7.75;;;23.80;99.10;;;;;;4939158;29;20075;-44
2023/07/02 11:46:39;;;;;;;9.88;7.95;;;23.90;97.30;;;;;;4940411;29;20048;-43
2023/07/02 11:49:09;;;;;;;11.38;8.18;;;23.80;96.50;;;;;;4937413;29;20048;-43
2023/07/02 11:51:37;;;;;;;10.32;7.78;;;24.10;96.00;;;;;;4933289;29;20040;-43
2023/07/02 11:54:05;;;;;;;10.30;8.35;;;24.30;93.90;;;;;;4937168;29;20056;-47
2023/07/02 11:56:33;;;;;;;13.32;9.30;;;24.20;93.90;;;;;;4937340;29;20394;-48
2023/07/02 11:59:00;;;;;;;13.60;9.07;;;24.30;93.80;;;;;;4937683;29;20078;-46
2023/07/02 12:01:31;;;;;;;14.68;9.30;;;24.20;93.70;;;;;;4935495;29;20050;-50
2023/07/02 12:03:59;;;;;;;13.40;9.70;;;24.80;94.10;;;;;;4933346;29;20126;-49
2023/07/02 12:06:26;;;;;;;13.32;9.68;;;25.20;92.40;;;;;;4933954;29;20131;-43
2023/07/02 12:08:53;;;;;;;15.13;10.05;;;24.70;92.30;;;;;;4939908;29;20052;-48
2023/07/02 12:11:21;;;;;;;17.92;10.15;;;24.70;92.50;;;;;;4938173;29;20057;-48
2023/07/02 12:13:48;;;;;;;14.85;9.82;;;24.90;92.10;;;;;;4940269;29;20729;-46
2023/07/02 12:16:15;;;;;;;17.70;11.15;;;25.40;91.80;;;;;;4937974;29;20048;-52
2023/07/02 12:18:43;;;;;;;16.52;11.60;;;25.50;92.00;;;;;;4940812;29;20091;-45
2023/07/02 12:21:10;;;;;;;17.80;10.98;;;25.20;91.90;;;;;;4937261;29;20083;-46
2023/07/02 12:23:37;;;;;;;20.17;10.93;;;25.10;92.00;;;;;;4936105;29;20080;-44
2023/07/02 12:26:05;;;;;;;18.70;11.48;;;25.30;91.70;;;;;;4940130;29;20135;-46
2023/07/02 12:28:32;;;;;;;14.45;11.23;;;25.40;91.70;;;;;;4934909;29;20517;-47
2023/07/02 12:30:59;;;;;;;18.90;11.45;;;26.10;91.20;;;;;;4943823;29;20050;-42
2023/07/02 12:33:27;;;;;;;16.25;11.20;;;26.20;90.90;;;;;;4942189;29;20040;-44
2023/07/02 12:35:54;;;;;;;16.20;11.30;;;26.50;90.40;;;;;;4945040;29;20461;-49
2023/07/02 12:38:21;;;;;;;17.17;11.05;;;26.70;89.00;;;;;;4944349;29;20054;-46
2023/07/02 12:40:49;;;;;;;19.05;10.82;;;27.10;86.30;;;;;;4942033;29;20058;-46
2023/07/02 12:43:16;;;;;;;15.95;10.65;;;27.00;85.00;;;;;;4939746;29;20062;-46
2023/07/02 12:45:44;;;;;;;17.65;11.25;;;26.80;84.50;;;;;;4939337;29;20135;-45
2023/07/02 12:48:11;;;;;;;16.58;11.70;;;26.70;84.70;;;;;;4944049;29;20036;-45
2023/07/02 12:50:39;;;;;;;15.65;10.40;;;26.90;84.30;;;;;;4935533;29;20058;-53